Search for airport 
image banner adimage banner ad
image banner ad

VEPY - Pakyong Airport

Located in Gangtok, India

ICAO - , IATA -

Data provided by Airmate  

General information

Coordinates: N27°13'33" E88°35'9"
Elevation is 4646 feet MSL.
 
Rated:
View ratings: [VIEW]


View others Airports in Sikkim

Operational data

Open for public use
Current time UTC:
Current local time:
Weather at : VEBD - Bagdogra ( 65 km )
TAF: TAF VEBD 240330Z 2406/2418 20005KT 5000 HZ SCT030 BKN090 TEMPO 2412/2416 1500 TSRA FEW030TCU/CB
View NOTAMs / SUP AIP / TFR affecting this airport [VIEW]
Communications frequencies: [VIEW]

Runways:

RWY identifierQFULength (ft)Width (ft)SurfaceLDA (ft)
0225°557798ASPH
20205°557798ASPH

Airport contact information

Address: Gangtok India

Satellite view of VEPY